Time;durP1;ratioP1;P1;durP2;ratioP2;P2;SDS_P1;SDS_P2;PMS_P1;PMS_P2;Temp;Humidity;BMP_temperature;BMP_pressure;BME280_temperature;BME280_humidity;BME280_pressure;Samples;Min_cycle;Max_cycle;Signal;HPM_P1;HPM_P2
2022/04/20 00:00:34;;;;;;;2.25;0.85;;;;;;;12.58;32.21;96864.09;6138663;23;20000;-86
2022/04/20 00:03:00;;;;;;;1.40;1.10;;;;;;;12.76;31.90;96864.59;6088097;23;20000;-83
2022/04/20 00:05:26;;;;;;;2.10;1.00;;;;;;;12.78;31.89;96868.47;6089689;23;20731;-85
2022/04/20 00:07:51;;;;;;;2.15;1.02;;;;;;;12.62;32.32;96857.28;6090230;23;20015;-87
2022/04/20 00:10:17;;;;;;;2.63;1.08;;;;;;;12.65;32.59;96859.38;6088305;23;19999;-86
2022/04/20 00:12:42;;;;;;;3.20;1.02;;;;;;;12.67;32.19;96852.06;6088357;23;20000;-89
2022/04/20 00:15:08;;;;;;;3.15;1.10;;;;;;;12.60;32.40;96858.63;6090257;23;20008;-87
2022/04/20 00:17:33;;;;;;;2.65;0.90;;;;;;;12.57;32.54;96862.53;6090444;23;20230;-85
2022/04/20 00:19:59;;;;;;;2.22;1.60;;;;;;;12.44;32.45;96850.00;6090774;23;20039;-85
2022/04/20 00:22:25;;;;;;;3.92;1.27;;;;;;;12.21;32.85;96853.97;6145857;23;20008;-84
2022/04/20 00:24:51;;;;;;;2.78;1.00;;;;;;;12.08;33.22;96858.69;6150618;23;19992;-85
2022/04/20 00:27:17;;;;;;;2.97;1.10;;;;;;;12.17;33.07;96851.09;6118749;23;20004;-85
2022/04/20 00:29:42;;;;;;;1.20;1.00;;;;;;;12.30;33.10;96849.78;6115997;23;20011;-86
2022/04/20 00:32:08;;;;;;;1.60;1.10;;;;;;;12.10;33.31;96842.75;6091064;23;20019;-84
2022/04/20 00:34:34;;;;;;;1.40;0.93;;;;;;;12.05;33.34;96848.00;6126846;23;20263;-88
2022/04/20 00:36:59;;;;;;;2.15;1.05;;;;;;;12.13;33.02;96843.03;6118498;23;20012;-85
2022/04/20 00:39:25;;;;;;;2.22;0.95;;;;;;;12.30;32.59;96845.34;6119818;23;20008;-87
2022/04/20 00:41:52;;;;;;;3.17;1.35;;;;;;;12.27;33.06;96855.53;6112819;23;20260;-83
2022/04/20 00:44:19;;;;;;;1.23;0.80;;;;;;;12.27;33.57;96865.97;6090366;23;20073;-85
2022/04/20 00:46:47;;;;;;;2.38;1.25;;;;;;;12.09;33.56;96857.63;6112976;23;20008;-87
2022/04/20 00:49:15;;;;;;;2.10;0.93;;;;;;;12.13;33.43;96850.03;6121429;23;20000;-86
2022/04/20 00:51:56;;;;;;;2.10;1.13;;;;;;;11.80;33.82;96855.47;6149918;23;20004;-86
2022/04/20 00:54:22;;;;;;;4.35;0.93;;;;;;;11.53;33.69;96855.72;6086648;23;20007;-86
2022/04/20 00:56:47;;;;;;;3.47;1.25;;;;;;;11.79;33.91;96846.13;6145259;23;20004;-87
2022/04/20 00:59:13;;;;;;;2.63;1.10;;;;;;;11.92;33.84;96847.44;6146150;23;20729;-84
2022/04/20 01:01:39;;;;;;;2.08;1.13;;;;;;;12.04;33.74;96843.81;6111818;23;20003;-82
2022/04/20 01:04:05;;;;;;;1.92;0.90;;;;;;;11.90;33.66;96846.13;6086397;23;20671;-87
2022/04/20 01:06:31;;;;;;;1.67;1.10;;;;;;;11.91;33.33;96845.88;6120150;23;20028;-85
2022/04/20 01:08:57;;;;;;;2.95;0.80;;;;;;;11.70;33.73;96834.59;6084146;23;20847;-83
2022/04/20 01:11:23;;;;;;;4.22;1.30;;;;;;;11.72;33.96;96837.75;6108586;23;20004;-84
2022/04/20 01:13:48;;;;;;;2.83;0.88;;;;;;;11.87;33.79;96838.81;6109618;23;20075;-87
2022/04/20 01:16:14;;;;;;;2.20;0.88;;;;;;;11.89;33.64;96847.94;6115048;23;20622;-85
2022/04/20 01:18:43;;;;;;;2.30;1.20;;;;;;;11.95;33.97;96846.16;6122559;23;20613;-85
2022/04/20 01:21:11;;;;;;;2.03;0.80;;;;;;;11.97;33.95;96846.66;6111669;23;20658;-84
2022/04/20 01:23:38;;;;;;;1.88;1.17;;;;;;;11.97;34.11;96846.66;6113422;23;20074;-87
2022/04/20 01:26:10;;;;;;;2.10;1.65;;;;;;;11.61;33.70;96844.78;6118127;23;20671;-85
2022/04/20 01:28:37;;;;;;;1.42;0.90;;;;;;;11.80;34.04;96845.06;6152655;23;20007;-84
2022/04/20 01:31:03;;;;;;;1.42;0.80;;;;;;;11.89;33.85;96853.16;6150501;23;20722;-86
2022/04/20 01:33:28;;;;;;;1.25;0.70;;;;;;;11.88;33.66;96841.16;6111800;23;20012;-86
2022/04/20 01:35:54;;;;;;;2.60;0.95;;;;;;;11.81;34.26;96838.81;6141363;23;20015;-86
2022/04/20 01:38:19;;;;;;;2.00;0.90;;;;;;;11.83;34.31;96838.56;6121177;23;20797;-85
2022/04/20 01:40:44;;;;;;;1.92;0.90;;;;;;;11.75;34.39;96839.06;6086822;23;20087;-86
2022/04/20 01:43:10;;;;;;;2.72;1.10;;;;;;;11.62;34.24;96828.09;6120665;23;20000;-85
2022/04/20 01:45:35;;;;;;;1.63;0.88;;;;;;;11.60;35.21;96832.78;6120739;23;20758;-85
2022/04/20 01:48:01;;;;;;;1.52;1.00;;;;;;;11.54;35.19;96841.63;6121620;23;20134;-85
2022/04/20 01:50:26;;;;;;;1.67;1.05;;;;;;;11.44;34.84;96837.19;6145431;23;20683;-85
2022/04/20 01:52:51;;;;;;;2.50;1.20;;;;;;;11.30;34.88;96824.91;6085752;23;20019;-85
2022/04/20 01:55:17;;;;;;;2.40;0.93;;;;;;;11.28;35.35;96837.44;6118367;23;20794;-85
2022/04/20 01:57:43;;;;;;;3.60;0.93;;;;;;;11.18;35.33;96832.97;6145689;23;20000;-86
2022/04/20 02:00:10;;;;;;;2.03;1.15;;;;;;;11.26;36.00;96835.06;6086648;23;20193;-85
2022/04/20 02:02:40;;;;;;;2.30;1.00;;;;;;;11.21;35.45;96838.44;6124611;23;20000;-85
2022/04/20 02:05:10;;;;;;;2.92;1.35;;;;;;;11.05;35.46;96835.00;6092931;23;20000;-85
2022/04/20 02:07:36;;;;;;;2.22;0.90;;;;;;;11.14;35.46;96839.69;6118168;23;20008;-84
2022/04/20 02:10:03;;;;;;;1.50;1.02;;;;;;;11.06;35.96;96833.19;6146714;23;20770;-85
2022/04/20 02:12:28;;;;;;;1.85;0.95;;;;;;;11.03;35.58;96839.66;6121181;23;20007;-85
2022/04/20 02:14:54;;;;;;;1.92;0.93;;;;;;;11.03;35.83;96825.88;6085542;23;20004;-84
2022/04/20 02:17:19;;;;;;;1.27;0.90;;;;;;;11.03;36.08;96837.06;6110795;23;20024;-83
2022/04/20 02:19:45;;;;;;;2.03;1.00;;;;;;;11.03;36.05;96839.66;6119447;23;20003;-87
2022/04/20 02:22:10;;;;;;;2.45;1.02;;;;;;;11.03;36.17;96831.84;6120978;23;20011;-83
2022/04/20 02:24:36;;;;;;;1.67;0.82;;;;;;;10.93;35.94;96831.03;6088305;23;20671;-85
2022/04/20 02:27:01;;;;;;;2.85;1.25;;;;;;;11.00;36.28;96844.59;6122436;23;20069;-86
2022/04/20 02:29:27;;;;;;;1.75;0.90;;;;;;;10.92;36.24;96851.09;6086688;23;20008;-85
2022/04/20 02:31:52;;;;;;;2.13;0.98;;;;;;;10.97;35.85;96842.53;6145768;23;20008;-87
2022/04/20 02:34:18;;;;;;;1.95;1.27;;;;;;;10.89;36.36;96841.19;6087659;23;20476;-86
2022/04/20 02:36:43;;;;;;;1.25;0.82;;;;;;;10.78;36.36;96829.16;6112144;23;20038;-87
2022/04/20 02:39:09;;;;;;;1.35;1.10;;;;;;;10.84;36.52;96844.53;6112494;23;20000;-87
2022/04/20 02:41:36;;;;;;;1.30;0.93;;;;;;;10.82;36.65;96844.03;6087143;23;20738;-87
2022/04/20 02:44:03;;;;;;;2.92;1.20;;;;;;;10.60;36.90;96838.19;6086712;23;20639;-84
2022/04/20 02:46:28;;;;;;;3.20;1.10;;;;;;;10.61;37.69;96840.53;6120951;23;20181;-87
2022/04/20 02:48:54;;;;;;;2.72;1.40;;;;;;;10.53;37.59;96838.41;6146680;23;20003;-85
2022/04/20 02:51:19;;;;;;;2.35;1.00;;;;;;;10.49;38.06;96835.53;6111263;23;20062;-85
2022/04/20 02:53:45;;;;;;;3.30;1.30;;;;;;;10.43;37.66;96835.75;6119709;23;20000;-86
2022/04/20 02:56:10;;;;;;;1.67;1.00;;;;;;;10.37;37.66;96834.16;6085805;23;20007;-86
2022/04/20 02:58:36;;;;;;;3.30;1.27;;;;;;;10.47;37.63;96842.81;6119812;23;20000;-86
2022/04/20 03:01:01;;;;;;;1.60;1.00;;;;;;;10.43;37.28;96841.72;6088141;23;20004;-87
2022/04/20 03:03:27;;;;;;;2.28;1.10;;;;;;;10.39;38.09;96850.31;6087558;23;20008;-85
2022/04/20 03:05:53;;;;;;;1.85;1.10;;;;;;;10.36;38.30;96848.19;6120247;23;20004;-86
2022/04/20 03:08:18;;;;;;;2.65;1.50;;;;;;;10.25;38.05;96822.06;6120968;23;20676;-86
2022/04/20 03:10:44;;;;;;;2.75;1.20;;;;;;;10.33;38.56;96841.66;6087186;23;20042;-87
2022/04/20 03:13:09;;;;;;;2.63;1.05;;;;;;;10.29;38.62;96856.19;6111028;23;20647;-86
2022/04/20 03:15:35;;;;;;;1.98;1.50;;;;;;;10.14;38.53;96862.06;6119453;23;20847;-86
2022/04/20 03:18:01;;;;;;;1.20;1.08;;;;;;;10.04;39.28;96833.34;6086498;23;19996;-87
2022/04/20 03:20:26;;;;;;;2.05;0.95;;;;;;;9.97;39.18;96846.56;6118322;23;20659;-86
2022/04/20 03:22:52;;;;;;;5.20;1.60;;;;;;;9.89;39.75;96852.25;6109879;23;20295;-85
2022/04/20 03:25:18;;;;;;;2.42;0.90;;;;;;;9.84;39.60;96852.22;6085596;23;20030;-86
2022/04/20 03:27:43;;;;;;;3.30;1.33;;;;;;;9.79;39.33;96842.53;6111417;23;20000;-87
2022/04/20 03:30:11;;;;;;;2.85;1.75;;;;;;;9.87;39.75;96859.50;6086398;23;20000;-84
2022/04/20 03:32:37;;;;;;;3.63;2.22;;;;;;;9.61;39.54;96827.28;6085502;23;20662;-85
2022/04/20 03:35:03;;;;;;;2.55;1.25;;;;;;;9.89;39.52;96853.03;6111307;23;20000;-86
2022/04/20 03:37:28;;;;;;;1.85;1.35;;;;;;;9.84;39.86;96854.81;6110409;23;20013;-86
2022/04/20 03:39:55;;;;;;;1.80;1.23;;;;;;;9.75;39.78;96859.66;6120016;23;20026;-84
2022/04/20 03:42:20;;;;;;;3.90;1.30;;;;;;;9.78;40.08;96869.56;6119281;23;20003;-85
2022/04/20 03:44:46;;;;;;;3.35;1.35;;;;;;;9.85;40.36;96867.56;6119208;23;20257;-87
2022/04/20 03:47:11;;;;;;;1.48;1.10;;;;;;;9.81;40.44;96863.88;6119173;23;20885;-86
2022/04/20 03:49:37;;;;;;;2.90;1.50;;;;;;;9.78;40.21;96864.34;6086652;23;20008;-86
2022/04/20 03:52:02;;;;;;;2.70;1.38;;;;;;;9.64;40.51;96868.41;6119975;23;20686;-85
2022/04/20 03:54:28;;;;;;;1.90;1.27;;;;;;;9.61;40.70;96874.84;6110153;23;20085;-85
2022/04/20 03:57:07;;;;;;;1.58;1.30;;;;;;;9.41;40.95;96878.03;6086144;23;20004;-85
2022/04/20 03:59:35;;;;;;;2.72;1.55;;;;;;;9.47;41.32;96865.88;6112828;23;20012;-85
2022/04/20 04:02:00;;;;;;;2.78;1.40;;;;;;;9.51;41.27;96867.75;6110848;23;20066;-86
2022/04/20 04:04:26;;;;;;;3.15;1.27;;;;;;;9.51;41.38;96866.94;6110613;23;20155;-85
2022/04/20 04:06:51;;;;;;;3.88;1.42;;;;;;;9.35;41.70;96856.41;6085636;23;20008;-86
2022/04/20 04:09:17;;;;;;;1.30;1.20;;;;;;;9.40;41.14;96871.28;6146351;23;19996;-86
2022/04/20 04:11:42;;;;;;;3.78;1.60;;;;;;;9.48;41.69;96865.63;6145597;23;20004;-85
2022/04/20 04:14:07;;;;;;;2.55;1.17;;;;;;;9.37;41.44;96858.75;6085546;23;20015;-86
2022/04/20 04:16:36;;;;;;;2.45;1.38;;;;;;;9.44;42.00;96867.16;6110576;23;20083;-86
2022/04/20 04:19:06;;;;;;;2.10;1.50;;;;;;;9.21;41.75;96872.63;6086500;23;20717;-83
2022/04/20 04:21:33;;;;;;;2.85;1.67;;;;;;;9.20;42.16;96874.41;6084285;23;20000;-84
2022/04/20 04:23:58;;;;;;;3.42;1.52;;;;;;;9.21;42.28;96881.19;6085134;23;20206;-85
2022/04/20 04:26:25;;;;;;;1.75;1.38;;;;;;;9.18;42.15;96866.09;6109416;23;20635;-85
2022/04/20 04:28:51;;;;;;;3.45;1.65;;;;;;;9.11;42.92;96866.25;6142611;23;20032;-86
2022/04/20 04:31:16;;;;;;;2.38;1.80;;;;;;;9.11;42.52;96873.28;6142835;23;19996;-85
2022/04/20 04:33:42;;;;;;;2.10;1.50;;;;;;;9.05;42.82;96869.03;6144091;23;20007;-85
2022/04/20 04:36:07;;;;;;;3.03;1.70;;;;;;;9.13;43.24;96871.22;6085014;23;20014;-86
2022/04/20 04:38:33;;;;;;;3.33;1.88;;;;;;;9.16;42.80;96868.91;6109173;23;20079;-84
2022/04/20 04:40:59;;;;;;;4.22;1.80;;;;;;;9.15;42.68;96862.19;6109243;23;20000;-85
2022/04/20 04:43:25;;;;;;;2.35;1.60;;;;;;;9.23;43.01;96862.78;6109599;23;20083;-87
2022/04/20 04:48:38;;;;;;;4.07;2.40;;;;;;;9.25;42.73;96866.69;6113740;23;20019;-86
2022/04/20 04:51:05;;;;;;;2.80;1.45;;;;;;;9.31;42.87;96880.53;6086930;23;19996;-86
2022/04/20 04:53:31;;;;;;;3.97;1.73;;;;;;;9.36;42.22;96880.59;6085680;23;20004;-86
2022/04/20 04:55:56;;;;;;;2.78;1.58;;;;;;;9.36;42.73;96878.00;6119176;23;20759;-86
2022/04/20 04:58:22;;;;;;;4.68;1.60;;;;;;;9.48;42.61;96889.03;6145278;23;20105;-86
2022/04/20 05:00:48;;;;;;;3.70;1.80;;;;;;;9.51;42.73;96891.16;6109451;23;20008;-86
2022/04/20 05:03:14;;;;;;;2.88;1.45;;;;;;;9.52;42.78;96887.50;6142984;23;20000;-86
2022/04/20 05:05:41;;;;;;;2.42;1.67;;;;;;;9.48;42.71;96883.84;6085658;23;20019;-84
2022/04/20 05:08:07;;;;;;;2.85;1.65;;;;;;;9.56;42.77;96890.41;6085464;23;20019;-86
2022/04/20 05:10:33;;;;;;;2.95;2.10;;;;;;;9.55;42.59;96889.63;6118022;23;20016;-86
2022/04/20 05:13:00;;;;;;;3.17;1.92;;;;;;;9.64;42.54;96884.78;6142513;23;20844;-86
2022/04/20 05:15:26;;;;;;;2.67;1.88;;;;;;;9.62;42.75;96891.25;6109090;23;20063;-84
2022/04/20 05:17:52;;;;;;;4.45;2.53;;;;;;;9.68;42.76;96879.84;6119581;23;20004;-87
2022/04/20 05:20:19;;;;;;;3.92;2.90;;;;;;;9.68;42.63;96885.06;6116575;23;20754;-84
2022/04/20 05:22:48;;;;;;;4.65;2.50;;;;;;;9.71;42.54;96879.38;6084941;23;20015;-85
2022/04/20 05:25:13;;;;;;;4.97;2.08;;;;;;;9.68;42.51;96874.66;6142175;23;20693;-85
2022/04/20 05:27:39;;;;;;;2.30;1.60;;;;;;;9.67;42.52;96876.47;6143439;23;20023;-85
2022/04/20 05:30:05;;;;;;;3.15;1.58;;;;;;;9.50;42.81;96897.38;6142306;23;20023;-84
2022/04/20 05:32:31;;;;;;;4.63;1.83;;;;;;;9.69;42.67;96897.03;6109788;23;20004;-86
2022/04/20 05:34:56;;;;;;;3.13;1.90;;;;;;;9.76;42.33;96900.22;6119697;23;20008;-84
2022/04/20 05:42:50;;;;;;;4.07;1.83;;;;;;;9.82;42.40;96886.25;6113697;23;20007;-86
2022/04/20 05:45:16;;;;;;;3.25;2.38;;;;;;;9.77;42.32;96895.78;6119260;23;20069;-84
2022/04/20 05:47:41;;;;;;;4.57;2.30;;;;;;;9.89;42.46;96888.66;6143618;23;20011;-84
2022/04/20 05:50:07;;;;;;;3.53;1.85;;;;;;;10.05;42.61;96879.16;6119815;23;20250;-87
2022/04/20 05:52:33;;;;;;;3.40;1.90;;;;;;;10.10;41.96;96895.59;6132677;23;20067;-86
2022/04/20 05:54:58;;;;;;;2.92;2.20;;;;;;;10.16;42.14;96880.03;6086007;23;20010;-86
2022/04/20 05:57:24;;;;;;;4.22;2.15;;;;;;;10.30;41.85;96891.59;6118837;23;20000;-87
2022/04/20 05:59:50;;;;;;;3.85;2.13;;;;;;;10.19;42.18;96889.94;6119433;23;20441;-86
2022/04/20 06:02:15;;;;;;;7.22;2.00;;;;;;;10.14;41.83;96882.88;6110376;23;20008;-86
2022/04/20 06:04:40;;;;;;;3.78;2.25;;;;;;;10.43;41.40;96887.78;6120481;23;20007;-87
2022/04/20 06:07:06;;;;;;;3.47;1.70;;;;;;;10.28;41.66;96889.22;6118976;23;20062;-85
2022/04/20 06:09:32;;;;;;;1.73;1.40;;;;;;;10.49;41.21;96884.97;6120476;23;20084;-87
2022/04/20 06:11:58;;;;;;;2.95;1.70;;;;;;;10.32;41.26;96862.75;6120975;23;20000;-85
2022/04/20 06:14:24;;;;;;;2.45;1.65;;;;;;;10.39;41.19;96879.69;6111774;23;20011;-84
2022/04/20 06:16:49;;;;;;;3.08;2.03;;;;;;;10.48;41.25;96882.63;6137247;23;20032;-85
2022/04/20 06:19:15;;;;;;;3.78;1.52;;;;;;;10.40;41.46;96864.88;6135670;23;20651;-85
2022/04/20 06:21:40;;;;;;;2.53;2.03;;;;;;;10.57;41.27;96875.13;6086978;23;20007;-86
2022/04/20 06:24:06;;;;;;;4.20;1.90;;;;;;;10.81;41.18;96891.16;6111812;23;20693;-84
2022/04/20 06:26:31;;;;;;;2.92;1.35;;;;;;;10.84;40.77;96885.44;6088470;23;20000;-83
2022/04/20 06:28:56;;;;;;;2.47;1.67;;;;;;;11.05;40.64;96888.91;6112011;23;20255;-83
2022/04/20 06:31:22;;;;;;;2.58;1.90;;;;;;;11.32;40.21;96880.16;6145265;23;20011;-86
2022/04/20 06:33:47;;;;;;;3.67;1.77;;;;;;;11.29;39.57;96891.88;6086737;23;20007;-84
2022/04/20 06:36:12;;;;;;;3.78;2.10;;;;;;;11.21;39.66;96881.97;6085155;23;20098;-85
2022/04/20 06:38:38;;;;;;;2.63;2.05;;;;;;;11.18;40.15;96895.50;6111268;23;20004;-85
2022/04/20 06:41:03;;;;;;;3.33;1.73;;;;;;;11.43;39.82;96887.00;6108700;23;20007;-84
2022/04/20 06:43:29;;;;;;;3.65;1.90;;;;;;;11.75;39.34;96892.00;6086902;23;20000;-85
2022/04/20 06:45:54;;;;;;;2.58;1.92;;;;;;;12.03;39.04;96887.38;6110550;23;20061;-86
2022/04/20 06:48:20;;;;;;;2.92;1.63;;;;;;;11.94;38.69;96899.38;6119932;23;20777;-83
2022/04/20 06:50:46;;;;;;;3.15;1.90;;;;;;;11.92;39.02;96880.59;6119980;23;19996;-85
2022/04/20 06:58:41;;;;;;;2.00;1.65;;;;;;;11.79;38.53;96887.84;6150518;23;20000;-85
2022/04/20 07:01:07;;;;;;;3.28;1.75;;;;;;;12.18;38.24;96882.16;6110513;23;20069;-85
2022/04/20 07:03:34;;;;;;;3.22;1.95;;;;;;;12.77;37.73;96890.44;6109887;23;20122;-84
2022/04/20 07:06:00;;;;;;;2.50;1.88;;;;;;;12.47;37.18;96884.22;6145160;23;20020;-85
2022/04/20 07:08:26;;;;;;;2.42;1.60;;;;;;;12.57;37.21;96878.19;6145455;23;20088;-87
2022/04/20 07:10:51;;;;;;;3.33;1.50;;;;;;;12.93;36.54;96881.50;6118133;23;20079;-83
2022/04/20 07:13:17;;;;;;;2.53;1.83;;;;;;;12.79;36.48;96879.75;6143588;23;20031;-86
2022/04/20 07:15:44;;;;;;;2.13;1.67;;;;;;;13.18;36.37;96887.72;6085143;23;20722;-86
2022/04/20 07:18:09;;;;;;;2.78;1.75;;;;;;;13.60;34.42;96883.84;6116265;23;20026;-84
2022/04/20 07:20:35;;;;;;;2.58;1.67;;;;;;;13.92;34.58;96892.31;6142474;23;20608;-84
2022/04/20 07:23:00;;;;;;;3.50;1.98;;;;;;;14.25;33.57;96882.88;6111220;23;20004;-85
2022/04/20 07:25:26;;;;;;;1.50;1.40;;;;;;;14.31;33.47;96889.66;6143101;23;20086;-86
2022/04/20 07:27:51;;;;;;;3.10;1.70;;;;;;;14.16;33.21;96882.69;6115787;23;20007;-81
2022/04/20 07:30:17;;;;;;;2.47;1.50;;;;;;;14.30;32.15;96888.06;6118947;23;20004;-84
2022/04/20 07:32:43;;;;;;;2.03;1.65;;;;;;;14.35;32.72;96890.66;6134574;23;20042;-82
2022/04/20 07:35:09;;;;;;;2.00;1.30;;;;;;;14.19;32.51;96879.53;6113408;23;20008;-86
2022/04/20 07:37:34;;;;;;;2.63;1.60;;;;;;;14.20;32.00;96888.94;6084111;23;20000;-83
2022/04/20 07:39:59;;;;;;;3.08;1.38;;;;;;;14.39;32.58;96883.81;6135458;23;20004;-85
2022/04/20 07:42:25;;;;;;;4.45;1.67;;;;;;;14.24;31.47;96881.34;6084070;23;20003;-86
2022/04/20 07:44:54;;;;;;;2.88;1.67;;;;;;;14.55;31.67;96891.53;6082219;23;20065;-85
2022/04/20 07:47:22;;;;;;;2.75;1.40;;;;;;;13.53;31.94;96882.59;6085992;23;20697;-86
2022/04/20 07:52:36;;;;;;;2.13;1.55;;;;;;;14.27;32.77;96895.72;6110519;23;20004;-84
2022/04/20 07:55:02;;;;;;;4.00;1.98;;;;;;;14.26;31.94;96894.13;6108851;23;20079;-86
2022/04/20 07:57:27;;;;;;;2.85;1.73;;;;;;;14.16;31.23;96884.53;6084125;23;20007;-83
2022/04/20 07:59:53;;;;;;;4.45;2.10;;;;;;;14.00;30.93;96887.28;6116327;23;19996;-85
2022/04/20 08:02:20;;;;;;;3.42;1.88;;;;;;;14.36;30.78;96897.47;6083628;23;20639;-82
2022/04/20 08:04:46;;;;;;;2.63;1.58;;;;;;;14.55;31.14;96888.94;6107586;23;20682;-83
2022/04/20 08:07:11;;;;;;;2.15;1.63;;;;;;;14.23;31.02;96890.25;6108156;23;20012;-82
2022/04/20 08:09:37;;;;;;;3.35;1.50;;;;;;;13.72;30.68;96885.38;6115093;23;20000;-85
2022/04/20 08:12:02;;;;;;;2.15;1.27;;;;;;;13.91;30.47;96893.34;6108427;23;20008;-83
2022/04/20 08:14:28;;;;;;;3.58;1.60;;;;;;;14.70;30.20;96877.53;6087079;23;315350;-84
2022/04/20 08:16:54;;;;;;;2.85;1.70;;;;;;;14.86;30.81;96884.19;6103282;23;20004;-83
2022/04/20 08:19:19;;;;;;;2.05;1.40;;;;;;;15.06;29.60;96892.88;6113273;23;20073;-84
2022/04/20 08:21:45;;;;;;;6.63;1.60;;;;;;;15.44;29.69;96896.34;6142827;23;20043;-81
2022/04/20 08:24:10;;;;;;;1.83;1.40;;;;;;;15.06;29.55;96895.50;6143873;23;20075;-82
2022/04/20 08:26:35;;;;;;;2.10;1.42;;;;;;;15.06;29.66;96891.03;6070995;23;20000;-82
2022/04/20 08:29:01;;;;;;;2.63;1.58;;;;;;;14.59;29.66;96888.09;6123223;23;20360;-83
2022/04/20 08:31:26;;;;;;;2.00;1.50;;;;;;;15.02;29.22;96890.03;6056487;23;20301;-85
2022/04/20 08:33:52;;;;;;;2.45;1.42;;;;;;;14.78;29.63;96893.41;6063316;23;20212;-84
2022/04/20 08:36:17;;;;;;;3.58;1.85;;;;;;;14.61;29.23;96890.44;6062720;23;20751;-82
2022/04/20 08:38:44;;;;;;;2.83;1.80;;;;;;;15.02;30.14;96878.75;6096765;23;20637;-82
2022/04/20 08:41:14;;;;;;;5.50;1.85;;;;;;;15.20;29.23;96895.59;6061077;23;20172;-83
2022/04/20 08:43:41;;;;;;;1.55;1.30;;;;;;;15.46;29.78;96898.69;6097397;23;20540;-83
2022/04/20 08:46:09;;;;;;;2.53;1.70;;;;;;;15.55;28.51;96891.75;6096474;23;20159;-82
2022/04/20 08:48:35;;;;;;;3.50;1.25;;;;;;;15.96;28.96;96893.81;6096197;23;20177;-82
2022/04/20 08:51:04;;;;;;;4.93;1.90;;;;;;;15.69;28.72;96894.44;6122602;23;20562;-83
2022/04/20 08:53:29;;;;;;;3.08;1.70;;;;;;;16.13;28.14;96890.69;6122835;23;20425;-84
2022/04/20 08:57:15;;;;;;;4.53;2.28;;;;;;;16.47;28.41;96892.22;6197064;23;20008;-82
2022/04/20 08:58:40;;;;;;;;;;;;;;;16.16;27.78;96890.09;6216324;23;20015;-85
2022/04/20 09:01:06;;;;;;;2.42;1.88;;;;;;;16.18;28.00;96893.22;6162108;23;19907;-83
2022/04/20 09:03:33;;;;;;;5.05;2.85;;;;;;;16.04;28.40;96897.63;6196819;23;20463;-85
2022/04/20 09:05:59;;;;;;;2.90;1.95;;;;;;;16.07;28.55;96889.97;6224305;23;20004;-84
2022/04/20 09:08:25;;;;;;;2.70;1.60;;;;;;;15.47;27.39;96887.91;6187205;23;20016;-83
2022/04/20 09:10:52;;;;;;;2.60;1.60;;;;;;;15.20;28.18;96879.84;6221927;23;20015;-82
2022/04/20 09:13:35;;;;;;;3.28;1.80;;;;;;;15.41;27.44;96896.13;6163414;23;20008;-84
2022/04/20 09:16:21;;;;;;;2.45;1.60;;;;;;;15.85;27.67;96885.31;6164746;23;20062;-82
2022/04/20 09:18:49;;;;;;;1.60;1.40;;;;;;;15.89;26.05;96896.03;6197159;23;20087;-84
2022/04/20 09:21:15;;;;;;;1.98;1.30;;;;;;;15.44;26.77;96890.31;6222461;23;20064;-83
2022/04/20 09:23:41;;;;;;;2.53;1.70;;;;;;;15.54;26.81;96885.72;6198458;23;20011;-81
2022/04/20 09:26:17;;;;;;;2.60;1.48;;;;;;;15.78;26.95;96882.28;6197646;23;20074;-82
2022/04/20 09:29:03;;;;;;;2.60;1.48;;;;;;;15.91;25.72;96884.16;6224080;23;20074;-83
2022/04/20 09:31:50;;;;;;;3.15;1.40;;;;;;;15.15;27.38;96888.59;6187408;23;20012;-83
2022/04/20 09:34:24;;;;;;;3.25;1.58;;;;;;;15.77;26.25;96878.09;6163614;23;20015;-83
2022/04/20 09:36:50;;;;;;;3.13;1.80;;;;;;;15.79;26.88;96878.56;6188136;23;20004;-81
2022/04/20 09:39:16;;;;;;;4.45;1.75;;;;;;;16.09;26.34;96884.41;6188396;23;20091;-81
2022/04/20 09:42:02;;;;;;;1.92;1.60;;;;;;;15.18;26.68;96877.50;6222927;23;20086;-82
2022/04/20 09:44:29;;;;;;;2.05;1.48;;;;;;;16.03;27.06;96877.69;6224428;23;20015;-83
2022/04/20 09:49:58;;;;;;;3.50;2.05;;;;;;;15.80;27.04;96884.59;6229783;23;20012;-82
2022/04/20 09:52:36;;;;;;;2.55;1.30;;;;;;;15.94;25.69;96879.41;6225059;23;20341;-79
2022/04/20 09:55:05;;;;;;;2.85;1.50;;;;;;;16.15;26.04;96872.78;6225981;23;19997;-82
2022/04/20 09:57:40;;;;;;;2.85;1.30;;;;;;;16.02;25.69;96879.56;6166293;23;20359;-83
2022/04/20 10:00:11;;;;;;;2.05;1.50;;;;;;;15.94;25.16;96874.16;6158588;23;20020;-82
2022/04/20 10:02:38;;;;;;;2.75;1.60;;;;;;;16.44;25.93;96869.16;6224684;23;20004;-83
2022/04/20 10:05:05;;;;;;;2.30;1.52;;;;;;;16.36;26.25;96875.06;6200269;23;20015;-83
2022/04/20 10:07:30;;;;;;;2.75;1.88;;;;;;;16.15;26.68;96864.13;6215393;23;20277;-80
2022/04/20 10:09:57;;;;;;;2.42;1.30;;;;;;;15.74;26.55;96865.50;6225842;23;20342;-82
2022/04/20 10:12:23;;;;;;;2.58;1.70;;;;;;;15.64;26.44;96873.50;6225094;23;20071;-82
2022/04/20 10:17:43;;;;;;;2.25;1.60;;;;;;;15.87;27.02;96862.19;6229726;23;20343;-82
2022/04/20 10:20:09;;;;;;;3.45;1.58;;;;;;;16.61;26.37;96860.72;6165046;23;20008;-83
2022/04/20 10:22:37;;;;;;;2.80;1.98;;;;;;;16.64;26.49;96847.75;6214135;23;20339;-81
2022/04/20 10:25:05;;;;;;;2.60;2.30;;;;;;;17.51;27.84;96852.38;6224941;23;20004;-84
2022/04/20 10:27:39;;;;;;;2.42;1.38;;;;;;;18.21;26.44;96852.91;6224056;23;20097;-81
2022/04/20 10:30:12;;;;;;;2.22;1.73;;;;;;;18.59;26.49;96850.59;6188865;23;20030;-80
2022/04/20 10:32:58;;;;;;;2.20;1.98;;;;;;;18.25;25.82;96848.56;6222352;23;20428;-80
2022/04/20 10:35:24;;;;;;;4.07;2.30;;;;;;;18.27;25.42;96849.84;6222014;23;20016;-83
2022/04/20 10:38:08;;;;;;;1.67;1.10;;;;;;;18.43;26.12;96847.59;6189835;23;20008;-82
2022/04/20 10:40:34;;;;;;;2.72;1.65;;;;;;;19.03;24.13;96838.34;6213417;23;20056;-82
2022/04/20 10:43:34;;;;;;;2.05;1.67;;;;;;;18.75;24.71;96839.63;6223629;23;20004;-83
2022/04/20 10:46:06;;;;;;;2.22;1.50;;;;;;;18.98;24.25;96833.22;6160596;23;20035;-81
2022/04/20 10:48:58;;;;;;;2.65;1.80;;;;;;;18.95;24.62;96830.44;6224111;23;20332;-81
2022/04/20 10:51:30;;;;;;;4.22;2.42;;;;;;;18.86;25.03;96833.81;6199680;23;20463;-82
2022/04/20 10:54:26;;;;;;;2.40;1.70;;;;;;;18.76;25.29;96820.09;6250998;23;20263;-81
2022/04/20 10:57:01;;;;;;;2.45;2.10;;;;;;;17.42;25.20;96813.59;6189267;23;20008;-81
2022/04/20 10:59:28;;;;;;;3.63;1.70;;;;;;;17.42;25.62;96813.59;6189866;23;20471;-83
2022/04/20 11:02:03;;;;;;;3.05;2.00;;;;;;;16.45;25.79;96813.69;6189625;23;20008;-80
2022/04/20 11:04:42;;;;;;;2.40;1.80;;;;;;;16.51;26.25;96810.97;6213530;23;20015;-82
2022/04/20 11:07:07;;;;;;;2.97;1.63;;;;;;;17.03;25.86;96809.69;6189118;23;20011;-83
2022/04/20 11:09:42;;;;;;;3.78;1.85;;;;;;;16.63;26.37;96809.38;6224547;23;20008;-82
2022/04/20 11:21:03;;;;;;;2.83;1.30;;;;;;;19.31;22.64;96800.38;6250262;23;20000;-82
2022/04/20 11:23:55;;;;;;;1.80;1.50;;;;;;;18.97;26.08;96797.38;6251347;23;20008;-82
2022/04/20 11:26:24;;;;;;;2.58;1.73;;;;;;;18.96;23.40;96793.19;6250457;23;20081;-85
2022/04/20 11:29:01;;;;;;;1.83;1.55;;;;;;;18.79;24.42;96795.75;6164686;23;20475;-82
2022/04/20 11:31:33;;;;;;;1.95;1.50;;;;;;;19.36;23.88;96800.22;6224270;23;20179;-83
2022/04/20 11:33:59;;;;;;;2.08;1.42;;;;;;;19.14;23.07;96796.66;6188743;23;20005;-81
2022/04/20 11:36:24;;;;;;;2.03;1.58;;;;;;;18.83;22.60;96800.16;6216761;23;20012;-83
2022/04/20 11:38:51;;;;;;;2.10;1.58;;;;;;;18.90;23.35;96792.56;6198718;23;20099;-84
2022/04/20 11:41:17;;;;;;;2.83;1.40;;;;;;;19.11;24.78;96794.63;6221927;23;20309;-84
2022/04/20 11:43:42;;;;;;;4.13;1.65;;;;;;;19.11;24.30;96801.72;6198474;23;20099;-82
2022/04/20 11:46:08;;;;;;;4.25;1.95;;;;;;;18.45;24.26;96800.59;6188826;23;20039;-81
2022/04/20 11:48:38;;;;;;;1.70;1.58;;;;;;;18.22;24.03;96802.53;6198675;23;20008;-84
2022/04/20 11:51:08;;;;;;;3.17;1.85;;;;;;;18.77;24.94;96784.75;6189063;23;20455;-84
2022/04/20 11:53:36;;;;;;;1.90;1.70;;;;;;;19.12;24.34;96784.81;6198598;23;20008;-81
2022/04/20 11:56:04;;;;;;;4.07;1.33;;;;;;;19.00;23.81;96788.84;6223163;23;20378;-82
2022/04/20 11:58:30;;;;;;;2.22;1.58;;;;;;;19.40;23.35;96785.31;6224034;23;20395;-82
2022/04/20 12:01:00;;;;;;;2.05;1.40;;;;;;;19.12;23.43;96780.31;6188914;23;20220;-81
2022/04/20 12:03:30;;;;;;;3.13;1.42;;;;;;;19.47;22.86;96788.25;6223643;23;20486;-84
2022/04/20 12:06:13;;;;;;;3.10;1.80;;;;;;;19.21;23.23;96794.31;6224314;23;20050;-84